sensor_id;sensor_type;location;lat;lon;timestamp;pressure;altitude;pressure_sealevel;temperature
20103;BMP180;10210;52.284;9.892;2022-07-31T00:01:43;100810.00;;;25.70
20103;BMP180;10210;52.284;9.892;2022-07-31T00:04:09;100814.00;;;25.70
20103;BMP180;10210;52.284;9.892;2022-07-31T00:06:35;100806.00;;;25.70
20103;BMP180;10210;52.284;9.892;2022-07-31T00:09:01;100809.00;;;25.70
20103;BMP180;10210;52.284;9.892;2022-07-31T00:11:27;100808.00;;;25.70
20103;BMP180;10210;52.284;9.892;2022-07-31T00:13:53;100806.00;;;25.70
20103;BMP180;10210;52.284;9.892;2022-07-31T00:16:21;100807.00;;;25.70
20103;BMP180;10210;52.284;9.892;2022-07-31T00:18:47;100814.00;;;25.70
20103;BMP180;10210;52.284;9.892;2022-07-31T00:21:13;100821.00;;;25.70
20103;BMP180;10210;52.284;9.892;2022-07-31T00:23:39;100817.00;;;25.60
20103;BMP180;10210;52.284;9.892;2022-07-31T00:26:08;100816.00;;;25.60
20103;BMP180;10210;52.284;9.892;2022-07-31T00:28:36;100810.00;;;25.60
20103;BMP180;10210;52.284;9.892;2022-07-31T00:31:02;100810.00;;;25.60
20103;BMP180;10210;52.284;9.892;2022-07-31T00:33:28;100811.00;;;25.60
20103;BMP180;10210;52.284;9.892;2022-07-31T00:35:54;100815.00;;;25.60
20103;BMP180;10210;52.284;9.892;2022-07-31T00:38:20;100821.00;;;25.60
20103;BMP180;10210;52.284;9.892;2022-07-31T00:40:48;100802.00;;;25.60
20103;BMP180;10210;52.284;9.892;2022-07-31T00:43:15;100806.00;;;25.50
20103;BMP180;10210;52.284;9.892;2022-07-31T00:45:43;100803.00;;;25.50
20103;BMP180;10210;52.284;9.892;2022-07-31T00:48:09;100800.00;;;25.50
20103;BMP180;10210;52.284;9.892;2022-07-31T00:50:36;100802.00;;;25.50
20103;BMP180;10210;52.284;9.892;2022-07-31T00:53:03;100797.00;;;25.50
20103;BMP180;10210;52.284;9.892;2022-07-31T00:55:29;100797.00;;;25.50
20103;BMP180;10210;52.284;9.892;2022-07-31T00:57:56;100802.00;;;25.40
20103;BMP180;10210;52.284;9.892;2022-07-31T01:00:22;100790.00;;;25.40
20103;BMP180;10210;52.284;9.892;2022-07-31T01:02:48;100798.00;;;25.40
20103;BMP180;10210;52.284;9.892;2022-07-31T01:05:15;100787.00;;;25.40
20103;BMP180;10210;52.284;9.892;2022-07-31T01:07:45;100797.00;;;25.40
20103;BMP180;10210;52.284;9.892;2022-07-31T01:13:23;100794.00;;;25.30
20103;BMP180;10210;52.284;9.892;2022-07-31T01:15:53;100797.00;;;25.30
20103;BMP180;10210;52.284;9.892;2022-07-31T01:18:22;100792.00;;;25.30
20103;BMP180;10210;52.284;9.892;2022-07-31T01:20:49;100794.00;;;25.30
20103;BMP180;10210;52.284;9.892;2022-07-31T01:23:44;100780.00;;;25.30
20103;BMP180;10210;52.284;9.892;2022-07-31T01:26:23;100776.00;;;25.30
20103;BMP180;10210;52.284;9.892;2022-07-31T01:31:52;100787.00;;;25.30
20103;BMP180;10210;52.284;9.892;2022-07-31T01:34:47;100785.00;;;25.20
20103;BMP180;10210;52.284;9.892;2022-07-31T01:37:26;100782.00;;;25.20
20103;BMP180;10210;52.284;9.892;2022-07-31T01:40:11;100783.00;;;25.20
20103;BMP180;10210;52.284;9.892;2022-07-31T01:42:43;100787.00;;;25.20
20103;BMP180;10210;52.284;9.892;2022-07-31T01:45:13;100785.00;;;25.20
20103;BMP180;10210;52.284;9.892;2022-07-31T01:47:41;100787.00;;;25.20
20103;BMP180;10210;52.284;9.892;2022-07-31T01:50:10;100784.00;;;25.20
20103;BMP180;10210;52.284;9.892;2022-07-31T01:52:40;100792.00;;;25.20
20103;BMP180;10210;52.284;9.892;2022-07-31T01:55:08;100792.00;;;25.20
20103;BMP180;10210;52.284;9.892;2022-07-31T01:57:37;100784.00;;;25.20
20103;BMP180;10210;52.284;9.892;2022-07-31T02:00:08;100784.00;;;25.20
20103;BMP180;10210;52.284;9.892;2022-07-31T02:02:35;100792.00;;;25.20
20103;BMP180;10210;52.284;9.892;2022-07-31T02:05:05;100783.00;;;25.10
20103;BMP180;10210;52.284;9.892;2022-07-31T02:07:38;100784.00;;;25.10
20103;BMP180;10210;52.284;9.892;2022-07-31T02:10:07;100778.00;;;25.10
20103;BMP180;10210;52.284;9.892;2022-07-31T02:12:37;100783.00;;;25.10
20103;BMP180;10210;52.284;9.892;2022-07-31T02:15:12;100778.00;;;25.10
20103;BMP180;10210;52.284;9.892;2022-07-31T02:17:41;100776.00;;;25.10
20103;BMP180;10210;52.284;9.892;2022-07-31T02:20:11;100786.00;;;25.10
20103;BMP180;10210;52.284;9.892;2022-07-31T02:22:37;100781.00;;;25.10
20103;BMP180;10210;52.284;9.892;2022-07-31T02:25:06;100777.00;;;25.10
20103;BMP180;10210;52.284;9.892;2022-07-31T02:27:34;100779.00;;;25.00
20103;BMP180;10210;52.284;9.892;2022-07-31T02:30:02;100784.00;;;25.00
20103;BMP180;10210;52.284;9.892;2022-07-31T02:32:31;100783.00;;;25.00
20103;BMP180;10210;52.284;9.892;2022-07-31T02:35:00;100783.00;;;25.00
20103;BMP180;10210;52.284;9.892;2022-07-31T02:37:28;100782.00;;;25.00
20103;BMP180;10210;52.284;9.892;2022-07-31T02:39:58;100779.00;;;24.90
20103;BMP180;10210;52.284;9.892;2022-07-31T02:42:25;100781.00;;;24.90
20103;BMP180;10210;52.284;9.892;2022-07-31T02:44:52;100780.00;;;24.90
20103;BMP180;10210;52.284;9.892;2022-07-31T02:47:19;100777.00;;;24.90
20103;BMP180;10210;52.284;9.892;2022-07-31T02:49:45;100778.00;;;24.80
20103;BMP180;10210;52.284;9.892;2022-07-31T02:52:12;100776.00;;;24.80
20103;BMP180;10210;52.284;9.892;2022-07-31T02:54:39;100776.00;;;24.80
20103;BMP180;10210;52.284;9.892;2022-07-31T02:57:07;100779.00;;;24.80
20103;BMP180;10210;52.284;9.892;2022-07-31T02:59:37;100781.00;;;24.70
20103;BMP180;10210;52.284;9.892;2022-07-31T03:02:05;100782.00;;;24.70
20103;BMP180;10210;52.284;9.892;2022-07-31T03:04:31;100776.00;;;24.70
20103;BMP180;10210;52.284;9.892;2022-07-31T03:06:58;100776.00;;;24.60
20103;BMP180;10210;52.284;9.892;2022-07-31T03:09:25;100775.00;;;24.60
20103;BMP180;10210;52.284;9.892;2022-07-31T03:11:51;100777.00;;;24.60
20103;BMP180;10210;52.284;9.892;2022-07-31T03:14:17;100771.00;;;24.50
20103;BMP180;10210;52.284;9.892;2022-07-31T03:16:44;100756.00;;;24.50
20103;BMP180;10210;52.284;9.892;2022-07-31T03:19:12;100759.00;;;24.40
20103;BMP180;10210;52.284;9.892;2022-07-31T03:21:38;100765.00;;;24.40
20103;BMP180;10210;52.284;9.892;2022-07-31T03:24:05;100766.00;;;24.40
20103;BMP180;10210;52.284;9.892;2022-07-31T03:26:31;100773.00;;;24.30
20103;BMP180;10210;52.284;9.892;2022-07-31T03:28:59;100759.00;;;24.30
20103;BMP180;10210;52.284;9.892;2022-07-31T03:31:25;100758.00;;;24.20
20103;BMP180;10210;52.284;9.892;2022-07-31T03:33:51;100758.00;;;24.20
20103;BMP180;10210;52.284;9.892;2022-07-31T03:36:17;100764.00;;;24.20
20103;BMP180;10210;52.284;9.892;2022-07-31T03:38:42;100758.00;;;24.20
20103;BMP180;10210;52.284;9.892;2022-07-31T03:41:09;100760.00;;;24.10
20103;BMP180;10210;52.284;9.892;2022-07-31T03:43:36;100755.00;;;24.10
20103;BMP180;10210;52.284;9.892;2022-07-31T03:46:03;100755.00;;;24.10
20103;BMP180;10210;52.284;9.892;2022-07-31T03:48:30;100751.00;;;24.10
20103;BMP180;10210;52.284;9.892;2022-07-31T03:50:58;100754.00;;;24.10
20103;BMP180;10210;52.284;9.892;2022-07-31T03:53:25;100756.00;;;24.10
20103;BMP180;10210;52.284;9.892;2022-07-31T03:55:52;100760.00;;;24.10
20103;BMP180;10210;52.284;9.892;2022-07-31T03:58:21;100752.00;;;24.00
20103;BMP180;10210;52.284;9.892;2022-07-31T04:00:47;100756.00;;;24.00
20103;BMP180;10210;52.284;9.892;2022-07-31T04:03:13;100753.00;;;24.00
20103;BMP180;10210;52.284;9.892;2022-07-31T04:05:40;100761.00;;;23.90
20103;BMP180;10210;52.284;9.892;2022-07-31T04:08:07;100758.00;;;23.90
20103;BMP180;10210;52.284;9.892;2022-07-31T04:10:34;100749.00;;;23.90
20103;BMP180;10210;52.284;9.892;2022-07-31T04:13:03;100751.00;;;23.80
20103;BMP180;10210;52.284;9.892;2022-07-31T04:15:29;100755.00;;;23.80
20103;BMP180;10210;52.284;9.892;2022-07-31T04:17:54;100751.00;;;23.80
20103;BMP180;10210;52.284;9.892;2022-07-31T04:20:20;100754.00;;;23.80
20103;BMP180;10210;52.284;9.892;2022-07-31T04:22:47;100759.00;;;23.80
20103;BMP180;10210;52.284;9.892;2022-07-31T04:25:13;100749.00;;;23.80
20103;BMP180;10210;52.284;9.892;2022-07-31T04:27:40;100749.00;;;23.70
20103;BMP180;10210;52.284;9.892;2022-07-31T04:30:07;100757.00;;;23.70
20103;BMP180;10210;52.284;9.892;2022-07-31T04:32:35;100759.00;;;23.70
20103;BMP180;10210;52.284;9.892;2022-07-31T04:35:01;100751.00;;;23.70
20103;BMP180;10210;52.284;9.892;2022-07-31T04:37:27;100753.00;;;23.70
20103;BMP180;10210;52.284;9.892;2022-07-31T04:39:53;100749.00;;;23.80
20103;BMP180;10210;52.284;9.892;2022-07-31T04:42:20;100753.00;;;23.80
20103;BMP180;10210;52.284;9.892;2022-07-31T04:44:45;100758.00;;;23.80
20103;BMP180;10210;52.284;9.892;2022-07-31T04:47:12;100750.00;;;23.80
20103;BMP180;10210;52.284;9.892;2022-07-31T04:49:38;100746.00;;;23.80
20103;BMP180;10210;52.284;9.892;2022-07-31T04:52:05;100746.00;;;23.80
20103;BMP180;10210;52.284;9.892;2022-07-31T04:54:31;100747.00;;;23.80
20103;BMP180;10210;52.284;9.892;2022-07-31T04:56:58;100751.00;;;23.80
20103;BMP180;10210;52.284;9.892;2022-07-31T04:59:24;100744.00;;;23.80
20103;BMP180;10210;52.284;9.892;2022-07-31T05:01:50;100750.00;;;23.80
20103;BMP180;10210;52.284;9.892;2022-07-31T05:04:17;100759.00;;;23.80
20103;BMP180;10210;52.284;9.892;2022-07-31T05:06:46;100766.00;;;23.80
20103;BMP180;10210;52.284;9.892;2022-07-31T05:09:19;100766.00;;;23.80
20103;BMP180;10210;52.284;9.892;2022-07-31T05:11:48;100771.00;;;23.80
20103;BMP180;10210;52.284;9.892;2022-07-31T05:14:17;100774.00;;;23.80
20103;BMP180;10210;52.284;9.892;2022-07-31T05:16:44;100767.00;;;23.80
20103;BMP180;10210;52.284;9.892;2022-07-31T05:19:11;100764.00;;;23.80
20103;BMP180;10210;52.284;9.892;2022-07-31T05:21:37;100767.00;;;23.80
20103;BMP180;10210;52.284;9.892;2022-07-31T05:24:03;100758.00;;;23.90
20103;BMP180;10210;52.284;9.892;2022-07-31T05:26:30;100764.00;;;23.90
20103;BMP180;10210;52.284;9.892;2022-07-31T05:28:58;100758.00;;;23.90
20103;BMP180;10210;52.284;9.892;2022-07-31T05:31:25;100758.00;;;23.90
20103;BMP180;10210;52.284;9.892;2022-07-31T05:33:51;100761.00;;;23.90
20103;BMP180;10210;52.284;9.892;2022-07-31T05:36:18;100755.00;;;23.90
20103;BMP180;10210;52.284;9.892;2022-07-31T05:38:44;100767.00;;;24.00
20103;BMP180;10210;52.284;9.892;2022-07-31T05:41:10;100756.00;;;24.00
20103;BMP180;10210;52.284;9.892;2022-07-31T05:43:37;100745.00;;;24.10
20103;BMP180;10210;52.284;9.892;2022-07-31T05:46:04;100751.00;;;24.10
20103;BMP180;10210;52.284;9.892;2022-07-31T05:48:31;100746.00;;;24.10
20103;BMP180;10210;52.284;9.892;2022-07-31T05:50:58;100737.00;;;24.10
20103;BMP180;10210;52.284;9.892;2022-07-31T05:53:24;100742.00;;;24.10
20103;BMP180;10210;52.284;9.892;2022-07-31T05:55:50;100746.00;;;24.10
20103;BMP180;10210;52.284;9.892;2022-07-31T05:58:18;100744.00;;;24.10
20103;BMP180;10210;52.284;9.892;2022-07-31T06:00:47;100746.00;;;24.10
20103;BMP180;10210;52.284;9.892;2022-07-31T06:03:13;100751.00;;;24.20
20103;BMP180;10210;52.284;9.892;2022-07-31T06:05:40;100748.00;;;24.20
20103;BMP180;10210;52.284;9.892;2022-07-31T06:08:06;100747.00;;;24.20
20103;BMP180;10210;52.284;9.892;2022-07-31T06:10:34;100746.00;;;24.30
20103;BMP180;10210;52.284;9.892;2022-07-31T06:13:02;100739.00;;;24.30
20103;BMP180;10210;52.284;9.892;2022-07-31T06:15:28;100740.00;;;24.30
20103;BMP180;10210;52.284;9.892;2022-07-31T06:17:55;100737.00;;;24.30
20103;BMP180;10210;52.284;9.892;2022-07-31T06:20:21;100737.00;;;24.40
20103;BMP180;10210;52.284;9.892;2022-07-31T06:22:46;100732.00;;;24.40
20103;BMP180;10210;52.284;9.892;2022-07-31T06:25:12;100738.00;;;24.40
20103;BMP180;10210;52.284;9.892;2022-07-31T06:27:38;100743.00;;;24.50
20103;BMP180;10210;52.284;9.892;2022-07-31T06:30:05;100736.00;;;24.50
20103;BMP180;10210;52.284;9.892;2022-07-31T06:32:32;100738.00;;;24.60
20103;BMP180;10210;52.284;9.892;2022-07-31T06:34:59;100744.00;;;24.60
20103;BMP180;10210;52.284;9.892;2022-07-31T06:37:25;100736.00;;;24.60
20103;BMP180;10210;52.284;9.892;2022-07-31T06:39:52;100741.00;;;24.60
20103;BMP180;10210;52.284;9.892;2022-07-31T06:42:22;100743.00;;;24.70
20103;BMP180;10210;52.284;9.892;2022-07-31T06:44:48;100739.00;;;24.70
20103;BMP180;10210;52.284;9.892;2022-07-31T06:47:17;100742.00;;;24.80
20103;BMP180;10210;52.284;9.892;2022-07-31T06:49:43;100741.00;;;24.90
20103;BMP180;10210;52.284;9.892;2022-07-31T06:52:09;100738.00;;;24.90
20103;BMP180;10210;52.284;9.892;2022-07-31T06:54:35;100738.00;;;25.00
20103;BMP180;10210;52.284;9.892;2022-07-31T06:57:02;100739.00;;;25.00
20103;BMP180;10210;52.284;9.892;2022-07-31T06:59:28;100742.00;;;25.10
20103;BMP180;10210;52.284;9.892;2022-07-31T07:01:55;100745.00;;;25.20
20103;BMP180;10210;52.284;9.892;2022-07-31T07:04:20;100743.00;;;25.30
20103;BMP180;10210;52.284;9.892;2022-07-31T07:06:46;100744.00;;;25.40
20103;BMP180;10210;52.284;9.892;2022-07-31T07:09:12;100748.00;;;25.40
20103;BMP180;10210;52.284;9.892;2022-07-31T07:11:37;100745.00;;;25.50
20103;BMP180;10210;52.284;9.892;2022-07-31T07:14:03;100745.00;;;25.50
20103;BMP180;10210;52.284;9.892;2022-07-31T07:16:29;100743.00;;;25.60
20103;BMP180;10210;52.284;9.892;2022-07-31T07:18:55;100724.00;;;25.60
20103;BMP180;10210;52.284;9.892;2022-07-31T07:21:20;100733.00;;;25.70
20103;BMP180;10210;52.284;9.892;2022-07-31T07:23:46;100745.00;;;25.90
20103;BMP180;10210;52.284;9.892;2022-07-31T07:26:12;100746.00;;;26.10
20103;BMP180;10210;52.284;9.892;2022-07-31T07:28:38;100737.00;;;26.50
20103;BMP180;10210;52.284;9.892;2022-07-31T07:31:04;100740.00;;;27.00
20103;BMP180;10210;52.284;9.892;2022-07-31T07:33:31;100739.00;;;27.60
20103;BMP180;10210;52.284;9.892;2022-07-31T07:35:57;100743.00;;;28.10
20103;BMP180;10210;52.284;9.892;2022-07-31T07:38:23;100742.00;;;28.80
20103;BMP180;10210;52.284;9.892;2022-07-31T07:40:50;100740.00;;;29.50
20103;BMP180;10210;52.284;9.892;2022-07-31T07:43:17;100733.00;;;30.00
20103;BMP180;10210;52.284;9.892;2022-07-31T07:45:43;100741.00;;;30.20
20103;BMP180;10210;52.284;9.892;2022-07-31T07:48:09;100736.00;;;30.20
20103;BMP180;10210;52.284;9.892;2022-07-31T07:50:34;100743.00;;;30.20
20103;BMP180;10210;52.284;9.892;2022-07-31T07:53:00;100728.00;;;30.00
20103;BMP180;10210;52.284;9.892;2022-07-31T07:55:26;100734.00;;;29.90
20103;BMP180;10210;52.284;9.892;2022-07-31T07:57:52;100734.00;;;29.70
20103;BMP180;10210;52.284;9.892;2022-07-31T08:00:18;100726.00;;;29.60
20103;BMP180;10210;52.284;9.892;2022-07-31T08:02:45;100729.00;;;29.40
20103;BMP180;10210;52.284;9.892;2022-07-31T08:05:11;100712.00;;;29.20
20103;BMP180;10210;52.284;9.892;2022-07-31T08:07:38;100712.00;;;29.10
20103;BMP180;10210;52.284;9.892;2022-07-31T08:10:07;100708.00;;;29.20
20103;BMP180;10210;52.284;9.892;2022-07-31T08:12:34;100709.00;;;29.20
20103;BMP180;10210;52.284;9.892;2022-07-31T08:15:00;100702.00;;;29.20
20103;BMP180;10210;52.284;9.892;2022-07-31T08:17:26;100711.00;;;29.20
20103;BMP180;10210;52.284;9.892;2022-07-31T08:19:51;100703.00;;;29.10
20103;BMP180;10210;52.284;9.892;2022-07-31T08:22:18;100695.00;;;29.00
20103;BMP180;10210;52.284;9.892;2022-07-31T08:24:43;100701.00;;;29.00
20103;BMP180;10210;52.284;9.892;2022-07-31T08:27:09;100697.00;;;28.90
20103;BMP180;10210;52.284;9.892;2022-07-31T08:29:54;100693.00;;;28.80
20103;BMP180;10210;52.284;9.892;2022-07-31T08:32:21;100693.00;;;28.80
20103;BMP180;10210;52.284;9.892;2022-07-31T08:34:47;100695.00;;;28.80
20103;BMP180;10210;52.284;9.892;2022-07-31T08:37:13;100697.00;;;28.80
20103;BMP180;10210;52.284;9.892;2022-07-31T08:39:39;100698.00;;;28.80
20103;BMP180;10210;52.284;9.892;2022-07-31T08:42:09;100700.00;;;28.80
20103;BMP180;10210;52.284;9.892;2022-07-31T08:44:36;100694.00;;;28.70
20103;BMP180;10210;52.284;9.892;2022-07-31T08:47:09;100691.00;;;28.70
20103;BMP180;10210;52.284;9.892;2022-07-31T08:49:41;100688.00;;;28.70
20103;BMP180;10210;52.284;9.892;2022-07-31T08:52:20;100692.00;;;28.60
20103;BMP180;10210;52.284;9.892;2022-07-31T08:54:50;100688.00;;;28.60
20103;BMP180;10210;52.284;9.892;2022-07-31T08:57:16;100685.00;;;28.60
20103;BMP180;10210;52.284;9.892;2022-07-31T08:59:42;100684.00;;;28.60
20103;BMP180;10210;52.284;9.892;2022-07-31T09:02:10;100682.00;;;28.60
20103;BMP180;10210;52.284;9.892;2022-07-31T09:04:38;100683.00;;;28.60
20103;BMP180;10210;52.284;9.892;2022-07-31T09:07:04;100685.00;;;28.70
20103;BMP180;10210;52.284;9.892;2022-07-31T09:09:30;100674.00;;;28.80
20103;BMP180;10210;52.284;9.892;2022-07-31T09:11:58;100675.00;;;28.80
20103;BMP180;10210;52.284;9.892;2022-07-31T09:14:33;100685.00;;;28.90
20103;BMP180;10210;52.284;9.892;2022-07-31T09:17:01;100675.00;;;29.00
20103;BMP180;10210;52.284;9.892;2022-07-31T09:19:41;100678.00;;;29.10
20103;BMP180;10210;52.284;9.892;2022-07-31T09:22:25;100675.00;;;29.10
20103;BMP180;10210;52.284;9.892;2022-07-31T09:25:15;100668.00;;;29.10
20103;BMP180;10210;52.284;9.892;2022-07-31T09:27:45;100662.00;;;29.30
20103;BMP180;10210;52.284;9.892;2022-07-31T09:30:11;100658.00;;;29.30
20103;BMP180;10210;52.284;9.892;2022-07-31T09:32:37;100666.00;;;29.40
20103;BMP180;10210;52.284;9.892;2022-07-31T09:35:12;100660.00;;;29.40
20103;BMP180;10210;52.284;9.892;2022-07-31T09:37:45;100655.00;;;29.40
20103;BMP180;10210;52.284;9.892;2022-07-31T09:40:11;100651.00;;;29.50
20103;BMP180;10210;52.284;9.892;2022-07-31T09:42:42;100656.00;;;29.50
20103;BMP180;10210;52.284;9.892;2022-07-31T09:45:21;100652.00;;;29.50
20103;BMP180;10210;52.284;9.892;2022-07-31T09:48:05;100653.00;;;29.60
20103;BMP180;10210;52.284;9.892;2022-07-31T09:50:57;100650.00;;;29.60
20103;BMP180;10210;52.284;9.892;2022-07-31T09:53:24;100650.00;;;29.70
20103;BMP180;10210;52.284;9.892;2022-07-31T09:55:55;100653.00;;;29.80
20103;BMP180;10210;52.284;9.892;2022-07-31T09:58:23;100643.00;;;29.80
20103;BMP180;10210;52.284;9.892;2022-07-31T10:00:52;100634.00;;;29.90
20103;BMP180;10210;52.284;9.892;2022-07-31T10:03:23;100638.00;;;29.90
20103;BMP180;10210;52.284;9.892;2022-07-31T10:05:50;100641.00;;;29.90
20103;BMP180;10210;52.284;9.892;2022-07-31T10:08:16;100641.00;;;29.90
20103;BMP180;10210;52.284;9.892;2022-07-31T10:10:44;100632.00;;;29.90
20103;BMP180;10210;52.284;9.892;2022-07-31T10:13:14;100632.00;;;30.00
20103;BMP180;10210;52.284;9.892;2022-07-31T10:15:44;100626.00;;;30.10
20103;BMP180;10210;52.284;9.892;2022-07-31T10:18:12;100637.00;;;30.20
20103;BMP180;10210;52.284;9.892;2022-07-31T10:20:41;100629.00;;;30.30
20103;BMP180;10210;52.284;9.892;2022-07-31T10:23:14;100625.00;;;30.40
20103;BMP180;10210;52.284;9.892;2022-07-31T10:25:54;100626.00;;;30.50
20103;BMP180;10210;52.284;9.892;2022-07-31T10:28:21;100617.00;;;30.70
20103;BMP180;10210;52.284;9.892;2022-07-31T10:30:49;100613.00;;;30.80
20103;BMP180;10210;52.284;9.892;2022-07-31T10:33:15;100619.00;;;30.90
20103;BMP180;10210;52.284;9.892;2022-07-31T10:36:10;100620.00;;;30.90
20103;BMP180;10210;52.284;9.892;2022-07-31T10:38:46;100620.00;;;31.10
20103;BMP180;10210;52.284;9.892;2022-07-31T10:42:05;100612.00;;;31.00
20103;BMP180;10210;52.284;9.892;2022-07-31T10:44:50;100610.00;;;31.00
20103;BMP180;10210;52.284;9.892;2022-07-31T10:47:17;100611.00;;;31.00
20103;BMP180;10210;52.284;9.892;2022-07-31T10:49:52;100610.00;;;30.90
20103;BMP180;10210;52.284;9.892;2022-07-31T10:52:30;100601.00;;;30.90
20103;BMP180;10210;52.284;9.892;2022-07-31T10:54:56;100601.00;;;30.80
20103;BMP180;10210;52.284;9.892;2022-07-31T10:57:32;100593.00;;;30.70
20103;BMP180;10210;52.284;9.892;2022-07-31T11:00:13;100588.00;;;30.60
20103;BMP180;10210;52.284;9.892;2022-07-31T11:02:45;100583.00;;;30.60
20103;BMP180;10210;52.284;9.892;2022-07-31T11:05:18;100580.00;;;30.60
20103;BMP180;10210;52.284;9.892;2022-07-31T11:07:47;100588.00;;;30.60
20103;BMP180;10210;52.284;9.892;2022-07-31T11:10:23;100579.00;;;30.60
20103;BMP180;10210;52.284;9.892;2022-07-31T11:13:08;100573.00;;;30.60
20103;BMP180;10210;52.284;9.892;2022-07-31T11:15:35;100571.00;;;30.70
20103;BMP180;10210;52.284;9.892;2022-07-31T11:18:16;100571.00;;;30.70
20103;BMP180;10210;52.284;9.892;2022-07-31T11:20:43;100568.00;;;30.80
20103;BMP180;10210;52.284;9.892;2022-07-31T11:23:15;100570.00;;;30.80
20103;BMP180;10210;52.284;9.892;2022-07-31T11:25:44;100569.00;;;30.90
20103;BMP180;10210;52.284;9.892;2022-07-31T11:28:15;100560.00;;;30.90
20103;BMP180;10210;52.284;9.892;2022-07-31T11:30:52;100558.00;;;31.00
20103;BMP180;10210;52.284;9.892;2022-07-31T11:33:42;100553.00;;;31.00
20103;BMP180;10210;52.284;9.892;2022-07-31T11:38:49;100544.00;;;31.20
20103;BMP180;10210;52.284;9.892;2022-07-31T11:41:17;100547.00;;;31.20
20103;BMP180;10210;52.284;9.892;2022-07-31T11:43:46;100547.00;;;31.30
20103;BMP180;10210;52.284;9.892;2022-07-31T11:46:13;100533.00;;;31.40
20103;BMP180;10210;52.284;9.892;2022-07-31T11:48:40;100536.00;;;31.50
20103;BMP180;10210;52.284;9.892;2022-07-31T11:51:06;100536.00;;;31.50
20103;BMP180;10210;52.284;9.892;2022-07-31T11:53:39;100533.00;;;31.60
20103;BMP180;10210;52.284;9.892;2022-07-31T11:56:06;100531.00;;;31.70
20103;BMP180;10210;52.284;9.892;2022-07-31T11:58:32;100529.00;;;31.70
20103;BMP180;10210;52.284;9.892;2022-07-31T12:01:02;100514.00;;;31.70
20103;BMP180;10210;52.284;9.892;2022-07-31T12:03:34;100520.00;;;31.80
20103;BMP180;10210;52.284;9.892;2022-07-31T12:06:02;100524.00;;;31.80
20103;BMP180;10210;52.284;9.892;2022-07-31T12:08:29;100510.00;;;31.80
20103;BMP180;10210;52.284;9.892;2022-07-31T12:10:58;100511.00;;;31.80
20103;BMP180;10210;52.284;9.892;2022-07-31T12:13:25;100504.00;;;31.90
20103;BMP180;10210;52.284;9.892;2022-07-31T12:16:09;100502.00;;;31.90
20103;BMP180;10210;52.284;9.892;2022-07-31T12:18:50;100490.00;;;32.00
20103;BMP180;10210;52.284;9.892;2022-07-31T12:21:18;100492.00;;;32.10
20103;BMP180;10210;52.284;9.892;2022-07-31T12:23:50;100492.00;;;32.20
20103;BMP180;10210;52.284;9.892;2022-07-31T12:26:31;100504.00;;;32.20
20103;BMP180;10210;52.284;9.892;2022-07-31T12:29:08;100497.00;;;32.30
20103;BMP180;10210;52.284;9.892;2022-07-31T12:31:53;100494.00;;;32.30
20103;BMP180;10210;52.284;9.892;2022-07-31T12:37:04;100493.00;;;32.30
20103;BMP180;10210;52.284;9.892;2022-07-31T12:39:38;100492.00;;;32.30
20103;BMP180;10210;52.284;9.892;2022-07-31T12:42:29;100487.00;;;32.30
20103;BMP180;10210;52.284;9.892;2022-07-31T12:44:57;100483.00;;;32.40
20103;BMP180;10210;52.284;9.892;2022-07-31T12:47:28;100485.00;;;32.50
20103;BMP180;10210;52.284;9.892;2022-07-31T12:49:58;100477.00;;;32.50
20103;BMP180;10210;52.284;9.892;2022-07-31T12:52:27;100477.00;;;32.50
20103;BMP180;10210;52.284;9.892;2022-07-31T12:54:55;100471.00;;;32.50
20103;BMP180;10210;52.284;9.892;2022-07-31T12:57:20;100475.00;;;32.50
20103;BMP180;10210;52.284;9.892;2022-07-31T12:59:46;100470.00;;;32.60
20103;BMP180;10210;52.284;9.892;2022-07-31T13:02:12;100470.00;;;32.60
20103;BMP180;10210;52.284;9.892;2022-07-31T13:04:37;100462.00;;;32.50
20103;BMP180;10210;52.284;9.892;2022-07-31T13:07:03;100464.00;;;32.50
20103;BMP180;10210;52.284;9.892;2022-07-31T13:09:29;100468.00;;;32.50
20103;BMP180;10210;52.284;9.892;2022-07-31T13:11:56;100470.00;;;32.50
20103;BMP180;10210;52.284;9.892;2022-07-31T13:14:22;100466.00;;;32.50
20103;BMP180;10210;52.284;9.892;2022-07-31T13:16:51;100452.00;;;32.50
20103;BMP180;10210;52.284;9.892;2022-07-31T13:19:17;100454.00;;;32.60
20103;BMP180;10210;52.284;9.892;2022-07-31T13:21:43;100459.00;;;32.60
20103;BMP180;10210;52.284;9.892;2022-07-31T13:24:09;100447.00;;;32.60
20103;BMP180;10210;52.284;9.892;2022-07-31T13:26:37;100446.00;;;32.60
20103;BMP180;10210;52.284;9.892;2022-07-31T13:29:04;100439.00;;;32.60
20103;BMP180;10210;52.284;9.892;2022-07-31T13:31:30;100437.00;;;32.60
20103;BMP180;10210;52.284;9.892;2022-07-31T13:33:56;100437.00;;;32.60
20103;BMP180;10210;52.284;9.892;2022-07-31T13:36:22;100430.00;;;32.70
20103;BMP180;10210;52.284;9.892;2022-07-31T13:38:49;100428.00;;;32.70
20103;BMP180;10210;52.284;9.892;2022-07-31T13:41:14;100428.00;;;32.70
20103;BMP180;10210;52.284;9.892;2022-07-31T13:43:49;100433.00;;;32.70
20103;BMP180;10210;52.284;9.892;2022-07-31T13:46:16;100439.00;;;32.70
20103;BMP180;10210;52.284;9.892;2022-07-31T13:48:42;100431.00;;;32.80
20103;BMP180;10210;52.284;9.892;2022-07-31T13:51:07;100427.00;;;32.80
20103;BMP180;10210;52.284;9.892;2022-07-31T13:53:34;100431.00;;;32.70
20103;BMP180;10210;52.284;9.892;2022-07-31T13:55:59;100425.00;;;32.70
20103;BMP180;10210;52.284;9.892;2022-07-31T13:58:26;100427.00;;;32.70
20103;BMP180;10210;52.284;9.892;2022-07-31T14:00:53;100426.00;;;32.70
20103;BMP180;10210;52.284;9.892;2022-07-31T14:03:19;100418.00;;;32.70
20103;BMP180;10210;52.284;9.892;2022-07-31T14:05:44;100429.00;;;32.70
20103;BMP180;10210;52.284;9.892;2022-07-31T14:08:10;100423.00;;;32.60
20103;BMP180;10210;52.284;9.892;2022-07-31T14:10:36;100424.00;;;32.60
20103;BMP180;10210;52.284;9.892;2022-07-31T14:13:02;100426.00;;;32.60
20103;BMP180;10210;52.284;9.892;2022-07-31T14:15:27;100423.00;;;32.50
20103;BMP180;10210;52.284;9.892;2022-07-31T14:17:53;100423.00;;;32.50